KMTC/MTC METAR and TAF weather

Enter ICAO airport designator
Station Type Date Time Source
KMTC METAR 2018/12/15 01:56 UTC NOAA

KMTC 150156Z 02002KT 7SM OVC006 05/05 A3018 RMK AO2A SLP230 WND DATA ESTMD T00470047 $


Station Type Date Time Source
KMTC Decoded METAR 2018/12/15 01:56 UTC NOAA

Selfridge Air National Guard Base, MI, United States (KMTC) 42-37N 082-50W
Dec 14, 2018 - 08:56 PM EST / 2018.12.15 0156 UTC
Wind: from the NNE (020 degrees) at 2 MPH (2 KT):0
Visibility: 7 mile(s):0
Sky conditions: overcast
Temperature: 40.5 F (4.7 C)
Dew Point: 40.5 F (4.7 C)
Relative Humidity: 100%
Pressure (altimeter): 30.18 in. Hg (1022 hPa)
ob: KMTC 150156Z 02002KT 7SM OVC006 05/05 A3018 RMK AO2A SLP230 WND DATA ESTMD T00470047
cycle: 2

Station Type Date Time Source
KMTC TAF 2018/12/15 01:12 UTC NOAA

TAF KMTC 150100Z 1501/1607 VRB06KT 8000 BR BKN006 620802 QNH3009INS
BECMG 1502/1503 VRB06KT 6000 BR BKN015 QNH3015INS
TEMPO 1506/1518 0100 FG VV001 TX08/1517Z TNM01/1508Z LAST NO
AMDS AFT 1504 NEXT 1509


Example: see airport list